Time;durP1;ratioP1;P1;durP2;ratioP2;P2;SDS_P1;SDS_P2;PMS_P1;PMS_P2;Temp;Humidity;BMP_temperature;BMP_pressure;BME280_temperature;BME280_humidity;BME280_pressure;Samples;Min_cycle;Max_cycle;Signal;HPM_P1;HPM_P2
2023/07/10 00:01:33;;;;;;;45.23;33.53;;;;;;;;;;5139036;27;20866;-63
2023/07/10 00:04:01;;;;;;;40.80;32.77;;;;;;;;;;5136156;27;20437;-63
2023/07/10 00:06:29;;;;;;;43.43;33.07;;;;;;;;;;5135429;27;20964;-63
2023/07/10 00:08:56;;;;;;;47.37;35.00;;;;;;;;;;5135678;27;20514;-63
2023/07/10 00:11:30;;;;;;;41.17;32.30;;;;;;;;;;5135712;27;20447;-62
2023/07/10 00:13:57;;;;;;;44.77;33.80;;;;;;;;;;5135979;27;20432;-63
2023/07/10 00:16:25;;;;;;;47.63;35.20;;;;;;;;;;5135557;27;20433;-63
2023/07/10 00:18:53;;;;;;;46.87;34.47;;;;;;;;;;5136053;27;20793;-63
2023/07/10 00:21:20;;;;;;;53.83;35.17;;;;;;;;;;5135516;27;20449;-63
2023/07/10 00:23:48;;;;;;;46.63;35.97;;;;;;;;;;5135292;27;20441;-63
2023/07/10 00:26:19;;;;;;;48.37;34.20;;;;;;;;;;5135270;27;20480;-63
2023/07/10 00:28:46;;;;;;;47.57;34.03;;;;;;;;;;5135637;27;20468;-63
2023/07/10 00:31:13;;;;;;;47.43;36.30;;;;;;;;;;5135062;27;20438;-62
2023/07/10 00:33:40;;;;;;;44.77;33.23;;;;;;;;;;5135419;27;20427;-64
2023/07/10 00:36:13;;;;;;;44.63;32.27;;;;;;;;;;5135152;27;20455;-64
2023/07/10 00:38:41;;;;;;;38.83;33.73;;;;;;;;;;5134891;27;20456;-63
2023/07/10 00:41:11;;;;;;;36.97;30.63;;;;;;;;;;5134678;27;20929;-63
2023/07/10 00:43:39;;;;;;;36.10;30.57;;;;;;;;;;5135095;27;20774;-63
2023/07/10 00:46:12;;;;;;;40.33;32.50;;;;;;;;;;5134864;27;20798;-62
2023/07/10 00:48:42;;;;;;;34.40;30.70;;;;;;;;;;5135189;27;20432;-63
2023/07/10 00:51:13;;;;;;;36.83;31.70;;;;;;;;;;5134902;27;20444;-63
2023/07/10 00:53:42;;;;;;;36.80;30.93;;;;;;;;;;5135140;27;20429;-63
2023/07/10 00:56:14;;;;;;;36.13;31.20;;;;;;;;;;5134323;27;20449;-62
2023/07/10 00:58:43;;;;;;;35.63;30.70;;;;;;;;;;5134933;27;20452;-63
2023/07/10 01:01:13;;;;;;;37.43;33.40;;;;;;;;;;5134406;27;20428;-63
2023/07/10 01:03:41;;;;;;;37.40;32.37;;;;;;;;;;5134813;27;20421;-63
2023/07/10 01:06:10;;;;;;;34.97;30.77;;;;;;;;;;5133978;27;20561;-63
2023/07/10 01:08:39;;;;;;;37.10;30.37;;;;;;;;;;5135130;27;20441;-63
2023/07/10 01:11:06;;;;;;;36.13;32.27;;;;;;;;;;5134497;27;20493;-63
2023/07/10 01:13:37;;;;;;;36.23;32.43;;;;;;;;;;5134539;27;20445;-63
2023/07/10 01:16:04;;;;;;;36.30;32.07;;;;;;;;;;5134474;27;20529;-63
2023/07/10 01:18:32;;;;;;;35.07;31.20;;;;;;;;;;5134526;27;20440;-63
2023/07/10 01:21:07;;;;;;;45.00;31.43;;;;;;;;;;5134523;27;20434;-63
2023/07/10 01:23:34;;;;;;;40.27;30.07;;;;;;;;;;5134202;27;20424;-63
2023/07/10 01:26:03;;;;;;;33.53;29.73;;;;;;;;;;5134413;27;20448;-63
2023/07/10 01:28:33;;;;;;;35.97;31.77;;;;;;;;;;5134441;27;20441;-63
2023/07/10 01:31:01;;;;;;;36.27;32.33;;;;;;;;;;5133981;27;20987;-62
2023/07/10 01:33:30;;;;;;;32.93;29.53;;;;;;;;;;5134908;27;20618;-63
2023/07/10 01:35:58;;;;;;;33.10;29.80;;;;;;;;;;5134498;28;20440;-63
2023/07/10 01:38:31;;;;;;;30.97;27.80;;;;;;;;;;5133954;28;20936;-63
2023/07/10 01:41:00;;;;;;;38.93;33.77;;;;;;;;;;5134007;27;20997;-62
2023/07/10 01:43:28;;;;;;;34.70;31.00;;;;;;;;;;5138385;27;20443;-62
2023/07/10 01:45:55;;;;;;;31.40;28.20;;;;;;;;;;5138520;27;20439;-63
2023/07/10 01:48:27;;;;;;;34.70;28.43;;;;;;;;;;5138506;27;20483;-63
2023/07/10 01:50:54;;;;;;;34.70;29.77;;;;;;;;;;5138219;27;20935;-63
2023/07/10 01:53:21;;;;;;;34.47;30.10;;;;;;;;;;5138377;27;20447;-63
2023/07/10 01:55:50;;;;;;;34.30;30.60;;;;;;;;;;5138332;27;20444;-63
2023/07/10 01:58:17;;;;;;;34.07;30.57;;;;;;;;;;5138644;27;20452;-63
2023/07/10 02:00:44;;;;;;;33.70;29.90;;;;;;;;;;5137808;27;20467;-63
2023/07/10 02:03:11;;;;;;;31.33;28.10;;;;;;;;;;5138490;27;20446;-63
2023/07/10 02:05:38;;;;;;;39.87;29.90;;;;;;;;;;5138440;27;20436;-63
2023/07/10 02:08:06;;;;;;;34.10;30.37;;;;;;;;;;5138407;27;20487;-63
2023/07/10 02:10:34;;;;;;;29.33;26.17;;;;;;;;;;5137926;27;20444;-63
2023/07/10 02:13:02;;;;;;;31.30;27.83;;;;;;;;;;5138091;27;20444;-63
2023/07/10 02:15:30;;;;;;;33.03;28.93;;;;;;;;;;5137617;27;20452;-63
2023/07/10 02:17:57;;;;;;;35.20;28.47;;;;;;;;;;5137620;27;20448;-63
2023/07/10 02:20:24;;;;;;;35.13;29.90;;;;;;;;;;5137518;27;20448;-63
2023/07/10 02:22:52;;;;;;;34.17;30.30;;;;;;;;;;5137509;27;20885;-63
2023/07/10 02:25:19;;;;;;;37.67;28.13;;;;;;;;;;5137733;27;20444;-63
2023/07/10 02:27:46;;;;;;;31.70;27.67;;;;;;;;;;5137697;27;20478;-63
2023/07/10 02:30:15;;;;;;;30.27;26.77;;;;;;;;;;5137850;27;20441;-65
2023/07/10 02:32:42;;;;;;;36.53;26.60;;;;;;;;;;5137871;27;20451;-63
2023/07/10 02:35:09;;;;;;;30.70;26.90;;;;;;;;;;5138004;27;20429;-64
2023/07/10 02:37:36;;;;;;;29.77;26.60;;;;;;;;;;5137511;27;20440;-63
2023/07/10 02:40:04;;;;;;;36.40;27.40;;;;;;;;;;5137155;27;20454;-63
2023/07/10 02:42:31;;;;;;;31.27;24.90;;;;;;;;;;5137129;27;20533;-64
2023/07/10 02:44:58;;;;;;;29.90;26.23;;;;;;;;;;5137139;27;20463;-63
2023/07/10 02:47:27;;;;;;;33.03;26.90;;;;;;;;;;5137307;27;20478;-63
2023/07/10 02:49:54;;;;;;;28.37;25.27;;;;;;;;;;5137376;27;20476;-64
2023/07/10 02:52:21;;;;;;;32.13;27.40;;;;;;;;;;5137085;27;20439;-63
2023/07/10 02:54:48;;;;;;;32.00;25.87;;;;;;;;;;5137207;27;20536;-64
2023/07/10 02:57:15;;;;;;;33.77;27.33;;;;;;;;;;5137026;27;20477;-63
2023/07/10 02:59:43;;;;;;;32.23;28.07;;;;;;;;;;5137299;27;20472;-64
2023/07/10 03:02:10;;;;;;;34.43;28.33;;;;;;;;;;5136658;27;20445;-63
2023/07/10 03:04:38;;;;;;;33.03;28.93;;;;;;;;;;5137099;27;20871;-63
2023/07/10 03:07:06;;;;;;;31.70;26.57;;;;;;;;;;5136892;27;20480;-64
2023/07/10 03:09:33;;;;;;;29.80;25.70;;;;;;;;;;5136906;27;20434;-63
2023/07/10 03:12:00;;;;;;;29.70;26.27;;;;;;;;;;5137172;27;20440;-63
2023/07/10 03:14:28;;;;;;;34.37;30.23;;;;;;;;;;5136836;27;20536;-63
2023/07/10 03:16:55;;;;;;;34.83;29.27;;;;;;;;;;5136682;27;20441;-63
2023/07/10 03:19:22;;;;;;;34.07;29.50;;;;;;;;;;5137018;27;20436;-63
2023/07/10 03:21:50;;;;;;;39.63;26.90;;;;;;;;;;5136925;27;20448;-63
2023/07/10 03:24:18;;;;;;;34.60;30.90;;;;;;;;;;5136706;27;20802;-63
2023/07/10 03:26:47;;;;;;;36.77;29.70;;;;;;;;;;5136431;27;20444;-63
2023/07/10 03:29:15;;;;;;;37.00;30.10;;;;;;;;;;5136675;27;20448;-63
2023/07/10 03:31:42;;;;;;;31.70;27.43;;;;;;;;;;5136374;27;20444;-63
2023/07/10 03:34:09;;;;;;;32.10;28.67;;;;;;;;;;5136140;27;20441;-63
2023/07/10 03:36:37;;;;;;;33.30;29.70;;;;;;;;;;5136421;27;20516;-63
2023/07/10 03:39:05;;;;;;;33.23;29.70;;;;;;;;;;5136356;27;20441;-63
2023/07/10 03:41:33;;;;;;;36.80;30.23;;;;;;;;;;5136167;27;20442;-63
2023/07/10 03:44:00;;;;;;;31.17;27.80;;;;;;;;;;5136353;27;20836;-63
2023/07/10 03:46:28;;;;;;;31.70;28.40;;;;;;;;;;5136214;27;20804;-63
2023/07/10 03:48:55;;;;;;;33.00;29.63;;;;;;;;;;5136221;27;20476;-62
2023/07/10 03:51:22;;;;;;;34.00;30.30;;;;;;;;;;5136215;27;20449;-63
2023/07/10 03:53:49;;;;;;;34.50;29.37;;;;;;;;;;5136043;27;20448;-63
2023/07/10 03:56:18;;;;;;;35.50;30.40;;;;;;;;;;5135995;27;20444;-63
2023/07/10 03:58:46;;;;;;;40.43;31.10;;;;;;;;;;5136172;27;20445;-64
2023/07/10 04:01:13;;;;;;;32.20;25.07;;;;;;;;;;5135708;27;20427;-63
2023/07/10 04:03:41;;;;;;;27.40;24.37;;;;;;;;;;5134859;27;20444;-63
2023/07/10 04:06:09;;;;;;;31.53;24.50;;;;;;;;;;5135212;27;20436;-64
2023/07/10 04:08:37;;;;;;;29.30;25.83;;;;;;;;;;5135410;27;20502;-63
2023/07/10 04:11:05;;;;;;;25.77;23.00;;;;;;;;;;5135684;27;20436;-64
2023/07/10 04:13:34;;;;;;;30.33;24.40;;;;;;;;;;5135178;27;20957;-63
2023/07/10 04:16:02;;;;;;;24.30;21.80;;;;;;;;;;5135784;27;20463;-64
2023/07/10 04:18:30;;;;;;;26.93;19.70;;;;;;;;;;5135280;27;20456;-65
2023/07/10 04:20:57;;;;;;;25.50;19.87;;;;;;;;;;5135375;27;20447;-61
2023/07/10 04:23:25;;;;;;;26.83;18.60;;;;;;;;;;5135284;27;20455;-62
2023/07/10 04:25:52;;;;;;;22.83;19.07;;;;;;;;;;5135088;27;20444;-63
2023/07/10 04:28:19;;;;;;;22.30;19.90;;;;;;;;;;5135130;27;20560;-63
2023/07/10 04:30:48;;;;;;;24.33;18.47;;;;;;;;;;5134872;27;20768;-63
2023/07/10 04:33:15;;;;;;;19.97;17.63;;;;;;;;;;5135322;27;20450;-62
2023/07/10 04:35:43;;;;;;;19.00;17.20;;;;;;;;;;5135196;27;20448;-62
2023/07/10 04:38:10;;;;;;;25.07;18.70;;;;;;;;;;5135208;27;20441;-63
2023/07/10 04:40:37;;;;;;;22.40;19.13;;;;;;;;;;5135041;27;20520;-63
2023/07/10 04:43:05;;;;;;;20.97;18.70;;;;;;;;;;5134599;27;20455;-62
2023/07/10 04:45:32;;;;;;;22.77;18.47;;;;;;;;;;5134656;27;20443;-63
2023/07/10 04:48:00;;;;;;;23.17;17.93;;;;;;;;;;5134414;27;20472;-63
2023/07/10 04:50:27;;;;;;;21.47;17.40;;;;;;;;;;5134729;27;20440;-63
2023/07/10 04:52:55;;;;;;;22.50;18.33;;;;;;;;;;5134752;27;20441;-62
2023/07/10 04:55:22;;;;;;;26.93;19.00;;;;;;;;;;5134708;27;20531;-63
2023/07/10 04:57:49;;;;;;;20.93;17.67;;;;;;;;;;5134780;27;20438;-63
2023/07/10 05:00:16;;;;;;;24.30;18.90;;;;;;;;;;5134975;27;20835;-62
2023/07/10 05:02:44;;;;;;;22.10;16.67;;;;;;;;;;5134368;27;20836;-63
2023/07/10 05:05:12;;;;;;;20.70;17.90;;;;;;;;;;5134806;27;20430;-62
2023/07/10 05:07:39;;;;;;;22.30;17.00;;;;;;;;;;5134181;27;20483;-62
2023/07/10 05:10:07;;;;;;;22.30;17.10;;;;;;;;;;5134163;27;20447;-62
2023/07/10 05:12:34;;;;;;;21.73;15.80;;;;;;;;;;5134322;27;20535;-62
2023/07/10 05:15:01;;;;;;;25.77;18.93;;;;;;;;;;5134506;27;20444;-62
2023/07/10 05:17:29;;;;;;;18.73;16.73;;;;;;;;;;5133325;27;20926;-63
2023/07/10 05:19:56;;;;;;;25.67;17.70;;;;;;;;;;5134384;27;20493;-62
2023/07/10 05:22:24;;;;;;;19.33;15.93;;;;;;;;;;5134388;27;20533;-63
2023/07/10 05:24:51;;;;;;;20.73;17.20;;;;;;;;;;5134307;27;20777;-62
2023/07/10 05:27:19;;;;;;;19.73;14.60;;;;;;;;;;5134331;27;20801;-61
2023/07/10 05:29:46;;;;;;;19.63;15.53;;;;;;;;;;5134499;27;20455;-61
2023/07/10 05:32:13;;;;;;;16.93;15.13;;;;;;;;;;5133869;27;20447;-62
2023/07/10 05:34:40;;;;;;;17.63;15.53;;;;;;;;;;5133983;27;20444;-62
2023/07/10 05:37:07;;;;;;;18.80;14.20;;;;;;;;;;5134062;27;20915;-62
2023/07/10 05:39:36;;;;;;;15.80;14.13;;;;;;;;;;5133994;28;20959;-62
2023/07/10 05:42:03;;;;;;;18.23;15.77;;;;;;;;;;5134785;28;20445;-62
2023/07/10 05:44:30;;;;;;;18.90;14.00;;;;;;;;;;5133883;28;20445;-62
2023/07/10 05:46:58;;;;;;;20.03;13.70;;;;;;;;;;5134006;28;20478;-62
2023/07/10 05:49:25;;;;;;;13.73;11.30;;;;;;;;;;5134024;28;20469;-61
2023/07/10 05:51:52;;;;;;;14.60;12.87;;;;;;;;;;5134179;28;20910;-61
2023/07/10 05:54:20;;;;;;;13.47;12.07;;;;;;;;;;5133797;28;20476;-61
2023/07/10 05:56:49;;;;;;;16.10;12.33;;;;;;;;;;5133828;28;20485;-62
2023/07/10 05:59:16;;;;;;;15.63;11.73;;;;;;;;;;5134048;28;20464;-62
2023/07/10 06:01:43;;;;;;;12.37;10.63;;;;;;;;;;5134175;28;20426;-62
2023/07/10 06:04:11;;;;;;;15.23;11.27;;;;;;;;;;5134162;28;20484;-62
2023/07/10 06:06:38;;;;;;;13.67;11.77;;;;;;;;;;5134062;28;20736;-62
2023/07/10 06:09:05;;;;;;;20.80;11.73;;;;;;;;;;5133603;28;20835;-62
2023/07/10 06:11:32;;;;;;;12.23;10.83;;;;;;;;;;5134353;28;20799;-62
2023/07/10 06:14:01;;;;;;;13.10;10.60;;;;;;;;;;5134472;28;20918;-62
2023/07/10 06:16:29;;;;;;;13.57;11.10;;;;;;;;;;5133597;28;20476;-62
2023/07/10 06:18:56;;;;;;;12.00;10.80;;;;;;;;;;5133502;28;20968;-62
2023/07/10 06:21:23;;;;;;;13.33;11.07;;;;;;;;;;5133966;28;20468;-62
2023/07/10 06:23:50;;;;;;;10.93;9.83;;;;;;;;;;5133824;28;20795;-62
2023/07/10 06:26:17;;;;;;;11.20;10.10;;;;;;;;;;5133818;28;20433;-62
2023/07/10 06:28:45;;;;;;;11.60;9.17;;;;;;;;;;5136229;27;20500;-62
2023/07/10 06:31:13;;;;;;;12.93;10.03;;;;;;;;;;5137626;27;20449;-63
2023/07/10 06:33:40;;;;;;;10.70;8.90;;;;;;;;;;5137270;27;20446;-63
2023/07/10 06:36:09;;;;;;;15.77;11.30;;;;;;;;;;5137570;27;20483;-62
2023/07/10 06:38:36;;;;;;;13.80;10.00;;;;;;;;;;5137598;27;20456;-63
2023/07/10 06:41:05;;;;;;;13.67;10.70;;;;;;;;;;5137518;27;20447;-61
2023/07/10 06:43:33;;;;;;;13.07;9.60;;;;;;;;;;5137366;27;20445;-62
2023/07/10 06:46:00;;;;;;;12.57;10.43;;;;;;;;;;5137541;27;20438;-62
2023/07/10 06:48:29;;;;;;;11.33;9.10;;;;;;;;;;5137014;27;21034;-63
2023/07/10 06:50:56;;;;;;;11.97;7.93;;;;;;;;;;5137266;27;20463;-63
2023/07/10 06:53:24;;;;;;;12.40;8.50;;;;;;;;;;5137115;27;20452;-62
2023/07/10 06:55:55;;;;;;;12.50;8.50;;;;;;;;;;5137188;27;20452;-62
2023/07/10 06:58:22;;;;;;;9.87;8.00;;;;;;;;;;5137156;27;20770;-63
2023/07/10 07:00:49;;;;;;;9.10;6.63;;;;;;;;;;5136950;27;20474;-62
2023/07/10 07:03:16;;;;;;;10.50;7.63;;;;;;;;;;5137530;27;20447;-62
2023/07/10 07:05:46;;;;;;;8.27;6.30;;;;;;;;;;5137128;27;20430;-62
2023/07/10 07:08:13;;;;;;;9.87;6.40;;;;;;;;;;5136976;27;20481;-62
2023/07/10 07:10:41;;;;;;;9.50;6.17;;;;;;;;;;5136908;27;20517;-62
2023/07/10 07:13:08;;;;;;;5.93;5.33;;;;;;;;;;5137000;27;20442;-62
2023/07/10 07:15:36;;;;;;;6.13;5.17;;;;;;;;;;5136793;27;20445;-62
2023/07/10 07:18:03;;;;;;;5.73;5.23;;;;;;;;;;5136558;27;20436;-62
2023/07/10 07:20:30;;;;;;;9.07;4.87;;;;;;;;;;5136702;27;20447;-62
2023/07/10 07:22:59;;;;;;;4.80;4.10;;;;;;;;;;5136437;27;20444;-62
2023/07/10 07:25:26;;;;;;;9.00;5.20;;;;;;;;;;5136567;27;20438;-62
2023/07/10 07:27:53;;;;;;;6.97;4.57;;;;;;;;;;5136291;27;20444;-61
2023/07/10 07:30:21;;;;;;;8.20;5.47;;;;;;;;;;5136134;27;20778;-62
2023/07/10 07:32:49;;;;;;;7.73;5.43;;;;;;;;;;5136236;27;20925;-62
2023/07/10 07:35:16;;;;;;;6.10;4.80;;;;;;;;;;5136154;27;20449;-62
2023/07/10 07:37:43;;;;;;;5.70;4.10;;;;;;;;;;5136674;27;20520;-62
2023/07/10 07:40:16;;;;;;;8.70;4.50;;;;;;;;;;5135555;27;20450;-61
2023/07/10 07:42:43;;;;;;;7.07;5.47;;;;;;;;;;5137125;27;20426;-62
2023/07/10 07:45:11;;;;;;;8.83;5.50;;;;;;;;;;5136302;27;20805;-62
2023/07/10 07:47:40;;;;;;;6.00;4.83;;;;;;;;;;5136260;27;20455;-62
2023/07/10 07:50:07;;;;;;;5.40;4.40;;;;;;;;;;5135961;27;20985;-62
2023/07/10 07:52:35;;;;;;;8.83;4.00;;;;;;;;;;5136127;27;20433;-62
2023/07/10 07:55:02;;;;;;;7.67;4.67;;;;;;;;;;5136426;27;20445;-62
2023/07/10 07:57:30;;;;;;;8.43;4.43;;;;;;;;;;5135594;27;20996;-62
2023/07/10 08:00:00;;;;;;;4.07;3.77;;;;;;;;;;5135783;27;20561;-63
2023/07/10 08:02:27;;;;;;;5.17;3.97;;;;;;;;;;5135629;27;20438;-62
2023/07/10 08:04:55;;;;;;;5.13;3.73;;;;;;;;;;5136356;27;20506;-62
2023/07/10 08:07:22;;;;;;;4.50;3.73;;;;;;;;;;5135804;27;20433;-62
2023/07/10 08:09:49;;;;;;;9.00;3.73;;;;;;;;;;5135367;27;20465;-62
2023/07/10 08:12:16;;;;;;;9.50;3.20;;;;;;;;;;5135769;27;20442;-62
2023/07/10 08:14:45;;;;;;;7.37;4.33;;;;;;;;;;5135706;27;20487;-62
2023/07/10 08:17:12;;;;;;;8.00;4.50;;;;;;;;;;5135577;27;20803;-61
2023/07/10 08:19:39;;;;;;;6.07;3.90;;;;;;;;;;5135590;27;20473;-62
2023/07/10 08:22:07;;;;;;;7.83;4.00;;;;;;;;;;5135452;27;20445;-62
2023/07/10 08:24:34;;;;;;;23.17;4.73;;;;;;;;;;5135495;27;20796;-61
2023/07/10 08:27:02;;;;;;;9.53;3.87;;;;;;;;;;5135508;27;20513;-62
2023/07/10 08:29:30;;;;;;;7.03;3.47;;;;;;;;;;5135772;27;20481;-61
2023/07/10 08:31:59;;;;;;;7.23;3.87;;;;;;;;;;5134834;27;20449;-62
2023/07/10 08:34:27;;;;;;;4.43;3.60;;;;;;;;;;5134898;27;20438;-62
2023/07/10 08:36:55;;;;;;;7.97;4.07;;;;;;;;;;5134841;27;20530;-62
2023/07/10 08:39:22;;;;;;;8.83;4.40;;;;;;;;;;5134843;27;20442;-62
2023/07/10 08:41:51;;;;;;;6.47;4.27;;;;;;;;;;5134955;27;20430;-62
2023/07/10 08:44:18;;;;;;;4.03;3.67;;;;;;;;;;5134774;27;20434;-62
2023/07/10 08:46:45;;;;;;;9.90;4.43;;;;;;;;;;5134719;27;20511;-62
2023/07/10 08:49:18;;;;;;;5.33;4.30;;;;;;;;;;5134967;27;20476;-62
2023/07/10 08:51:51;;;;;;;5.37;4.13;;;;;;;;;;5134787;27;20426;-62
2023/07/10 08:54:19;;;;;;;5.47;3.47;;;;;;;;;;5135621;27;20776;-62
2023/07/10 08:56:48;;;;;;;4.90;3.80;;;;;;;;;;5134539;27;20919;-61
2023/07/10 08:59:18;;;;;;;4.10;3.60;;;;;;;;;;5134907;27;20900;-62
2023/07/10 09:01:47;;;;;;;5.33;3.50;;;;;;;;;;5135036;27;20422;-62
2023/07/10 09:04:17;;;;;;;5.20;3.70;;;;;;;;;;5135592;27;20434;-62
2023/07/10 09:06:47;;;;;;;4.17;3.70;;;;;;;;;;5135268;27;20446;-62
2023/07/10 09:09:21;;;;;;;12.23;3.97;;;;;;;;;;5134758;27;20534;-61
2023/07/10 09:11:50;;;;;;;4.50;3.80;;;;;;;;;;5134706;27;20436;-61
2023/07/10 09:14:22;;;;;;;3.40;2.83;;;;;;;;;;5134804;27;20439;-61
2023/07/10 09:16:51;;;;;;;4.73;3.50;;;;;;;;;;5134472;27;20933;-62
2023/07/10 09:19:21;;;;;;;6.60;3.23;;;;;;;;;;5134781;27;20458;-61
2023/07/10 09:21:48;;;;;;;4.17;3.00;;;;;;;;;;5134750;27;20445;-62
2023/07/10 09:24:18;;;;;;;3.97;2.77;;;;;;;;;;5134157;27;20441;-62
2023/07/10 09:26:45;;;;;;;4.47;3.27;;;;;;;;;;5134165;27;20434;-62
2023/07/10 09:29:26;;;;;;;4.30;2.87;;;;;;;;;;5134004;27;20478;-61
2023/07/10 09:31:56;;;;;;;7.70;2.93;;;;;;;;;;5134502;27;20426;-63
2023/07/10 09:34:28;;;;;;;7.33;3.20;;;;;;;;;;5135156;27;20444;-62
2023/07/10 09:36:57;;;;;;;4.33;2.20;;;;;;;;;;5134835;27;20779;-62
2023/07/10 09:39:26;;;;;;;3.50;2.67;;;;;;;;;;5134377;28;20541;-63
2023/07/10 09:41:53;;;;;;;3.30;2.60;;;;;;;;;;5134301;28;20802;-62
2023/07/10 09:44:22;;;;;;;3.63;2.40;;;;;;;;;;5134297;28;20794;-62
2023/07/10 09:46:49;;;;;;;5.73;2.63;;;;;;;;;;5133896;28;20942;-62
2023/07/10 09:49:18;;;;;;;2.50;2.30;;;;;;;;;;5134959;28;20510;-62
2023/07/10 09:51:52;;;;;;;2.57;2.37;;;;;;;;;;5133807;28;20443;-62
2023/07/10 09:54:19;;;;;;;3.40;3.03;;;;;;;;;;5134250;28;20424;-62
2023/07/10 09:56:48;;;;;;;3.80;2.10;;;;;;;;;;5134012;28;20446;-62
2023/07/10 09:59:19;;;;;;;5.77;3.10;;;;;;;;;;5133901;28;20573;-61
2023/07/10 10:01:48;;;;;;;3.43;2.70;;;;;;;;;;5134000;27;20497;-62
2023/07/10 10:04:19;;;;;;;4.67;3.00;;;;;;;;;;5137276;27;21000;-62
2023/07/10 10:06:55;;;;;;;5.97;3.07;;;;;;;;;;5138566;27;20804;-62
2023/07/10 10:09:25;;;;;;;3.73;2.30;;;;;;;;;;5138510;27;20463;-62
2023/07/10 10:11:53;;;;;;;4.07;2.03;;;;;;;;;;5138545;27;20508;-62
2023/07/10 10:14:23;;;;;;;4.17;2.70;;;;;;;;;;5138127;27;20499;-62
2023/07/10 10:16:52;;;;;;;8.20;3.00;;;;;;;;;;5137895;27;20530;-62
2023/07/10 10:19:22;;;;;;;3.30;2.43;;;;;;;;;;5137620;27;20437;-62
2023/07/10 10:21:49;;;;;;;6.00;2.80;;;;;;;;;;5137731;27;20440;-63
2023/07/10 10:24:16;;;;;;;5.30;2.33;;;;;;;;;;5137514;27;20508;-62
2023/07/10 10:26:56;;;;;;;5.60;2.70;;;;;;;;;;5137996;27;20553;-62
2023/07/10 10:29:32;;;;;;;2.90;2.30;;;;;;;;;;5137920;27;20471;-62
2023/07/10 10:32:02;;;;;;;5.57;2.93;;;;;;;;;;5138418;27;20434;-62
2023/07/10 10:34:35;;;;;;;4.13;2.40;;;;;;;;;;5137782;27;20425;-62
2023/07/10 10:37:16;;;;;;;4.40;2.37;;;;;;;;;;5137545;27;20433;-62
2023/07/10 10:39:46;;;;;;;5.07;2.37;;;;;;;;;;5137921;27;20782;-62
2023/07/10 10:42:20;;;;;;;3.20;2.37;;;;;;;;;;5137091;27;20471;-62
2023/07/10 10:44:53;;;;;;;2.30;2.10;;;;;;;;;;5138296;27;20438;-62
2023/07/10 10:47:27;;;;;;;2.40;2.13;;;;;;;;;;5137838;27;20440;-62
2023/07/10 10:50:04;;;;;;;5.03;2.60;;;;;;;;;;5137682;27;20462;-62
2023/07/10 10:52:35;;;;;;;4.73;2.70;;;;;;;;;;5137510;27;20424;-62
2023/07/10 10:55:18;;;;;;;2.23;1.90;;;;;;;;;;5137350;27;20429;-62
2023/07/10 10:57:50;;;;;;;2.20;1.80;;;;;;;;;;5136757;27;20462;-62
2023/07/10 11:00:25;;;;;;;4.40;2.20;;;;;;;;;;5137329;27;20476;-62
2023/07/10 11:02:57;;;;;;;9.40;3.00;;;;;;;;;;5137875;27;20433;-62
2023/07/10 11:05:31;;;;;;;4.50;2.47;;;;;;;;;;5137136;27;20508;-62
2023/07/10 11:08:01;;;;;;;5.00;2.13;;;;;;;;;;5137164;27;20425;-61
2023/07/10 11:10:31;;;;;;;4.43;1.70;;;;;;;;;;5137058;27;20464;-62
2023/07/10 11:13:00;;;;;;;2.37;1.90;;;;;;;;;;5136440;27;20967;-62
2023/07/10 11:15:28;;;;;;;2.60;2.20;;;;;;;;;;5135452;27;20433;-62
2023/07/10 11:17:55;;;;;;;3.17;2.40;;;;;;;;;;5136927;27;20455;-62
2023/07/10 11:20:24;;;;;;;4.20;2.27;;;;;;;;;;5136387;27;20938;-62
2023/07/10 11:22:52;;;;;;;5.40;2.00;;;;;;;;;;5136571;27;20441;-62
2023/07/10 11:25:33;;;;;;;4.20;2.40;;;;;;;;;;5136711;27;20796;-62
2023/07/10 11:28:04;;;;;;;3.30;2.03;;;;;;;;;;5136959;27;20447;-62
2023/07/10 11:30:32;;;;;;;4.30;2.40;;;;;;;;;;5136975;27;20479;-64
2023/07/10 11:33:00;;;;;;;4.67;2.13;;;;;;;;;;5136990;27;20442;-63
2023/07/10 11:35:28;;;;;;;5.70;2.10;;;;;;;;;;5136663;27;20446;-63
2023/07/10 11:38:10;;;;;;;5.47;1.97;;;;;;;;;;5136304;27;20446;-63
2023/07/10 11:40:58;;;;;;;3.03;1.73;;;;;;;;;;5137093;27;20428;-69
2023/07/10 11:43:57;;;;;;;2.60;2.10;;;;;;;;;;5136686;27;20428;-69
2023/07/10 11:46:35;;;;;;;4.37;2.00;;;;;;;;;;5135947;27;20414;-68
2023/07/10 11:49:11;;;;;;;3.80;1.97;;;;;;;;;;5136419;27;20429;-69
2023/07/10 11:51:40;;;;;;;4.73;2.23;;;;;;;;;;5135087;27;20465;-69
2023/07/10 11:54:26;;;;;;;4.30;1.87;;;;;;;;;;5136387;27;20490;-68
2023/07/10 11:57:03;;;;;;;3.20;1.83;;;;;;;;;;5135503;27;20443;-69
2023/07/10 11:59:30;;;;;;;3.53;2.47;;;;;;;;;;5135427;27;20558;-69
2023/07/10 12:01:59;;;;;;;3.20;1.90;;;;;;;;;;5136196;27;20440;-68
2023/07/10 12:04:27;;;;;;;4.73;1.80;;;;;;;;;;5135922;27;20849;-68
2023/07/10 12:06:58;;;;;;;4.60;1.97;;;;;;;;;;5135857;27;20477;-69
2023/07/10 12:09:25;;;;;;;4.83;2.10;;;;;;;;;;5135376;27;20438;-69
2023/07/10 12:11:56;;;;;;;2.80;2.23;;;;;;;;;;5135609;27;20445;-69
2023/07/10 12:14:23;;;;;;;4.10;1.93;;;;;;;;;;5135329;27;20433;-69
2023/07/10 12:16:53;;;;;;;3.97;2.30;;;;;;;;;;5135268;27;20445;-68
2023/07/10 12:19:25;;;;;;;3.33;2.20;;;;;;;;;;5135427;27;20428;-69
2023/07/10 12:21:52;;;;;;;3.90;1.93;;;;;;;;;;5135747;27;20449;-68
2023/07/10 12:24:19;;;;;;;3.30;1.87;;;;;;;;;;5135765;27;20442;-69
2023/07/10 12:26:51;;;;;;;3.67;2.00;;;;;;;;;;5134631;27;20945;-68
2023/07/10 12:29:19;;;;;;;4.83;2.00;;;;;;;;;;5135066;27;20447;-69
2023/07/10 12:31:47;;;;;;;2.63;2.30;;;;;;;;;;5134779;27;20992;-68
2023/07/10 12:34:19;;;;;;;4.47;2.80;;;;;;;;;;5135329;27;20758;-68
2023/07/10 12:36:50;;;;;;;6.47;2.30;;;;;;;;;;5135228;27;20433;-68
2023/07/10 12:39:17;;;;;;;2.80;2.03;;;;;;;;;;5135093;27;20422;-68
2023/07/10 12:41:46;;;;;;;3.67;1.70;;;;;;;;;;5135092;27;20418;-68
2023/07/10 12:44:17;;;;;;;3.60;2.07;;;;;;;;;;5134944;27;20512;-68
2023/07/10 12:46:45;;;;;;;3.60;1.80;;;;;;;;;;5135180;27;20502;-69
2023/07/10 12:49:14;;;;;;;5.10;2.10;;;;;;;;;;5134876;27;20463;-69
2023/07/10 12:51:43;;;;;;;4.10;2.67;;;;;;;;;;5134585;27;20482;-68
2023/07/10 12:54:17;;;;;;;3.20;1.93;;;;;;;;;;5134993;27;20438;-68
2023/07/10 12:56:45;;;;;;;1.90;1.60;;;;;;;;;;5135062;27;20428;-68
2023/07/10 12:59:16;;;;;;;5.23;2.13;;;;;;;;;;5134079;27;20492;-68
2023/07/10 13:01:48;;;;;;;3.40;2.47;;;;;;;;;;5135038;27;20432;-68
2023/07/10 13:04:20;;;;;;;6.40;2.83;;;;;;;;;;5134901;27;20441;-69
2023/07/10 13:06:59;;;;;;;6.40;2.10;;;;;;;;;;5134341;27;20961;-68
2023/07/10 13:09:28;;;;;;;4.37;2.20;;;;;;;;;;5134271;27;20806;-69
2023/07/10 13:11:56;;;;;;;3.97;2.10;;;;;;;;;;5134195;27;20473;-69
2023/07/10 13:14:26;;;;;;;5.57;2.43;;;;;;;;;;5134367;27;20438;-69
2023/07/10 13:16:53;;;;;;;7.33;2.13;;;;;;;;;;5134148;27;20449;-69
2023/07/10 13:19:20;;;;;;;5.10;2.40;;;;;;;;;;5133970;27;20449;-69
2023/07/10 13:21:47;;;;;;;6.63;1.87;;;;;;;;;;5133871;27;20445;-69
2023/07/10 13:24:14;;;;;;;3.87;1.90;;;;;;;;;;5134589;27;20773;-68
2023/07/10 13:26:45;;;;;;;4.80;2.37;;;;;;;;;;5133777;27;20937;-68
2023/07/10 13:29:13;;;;;;;3.80;1.87;;;;;;;;;;5134182;27;20449;-68
2023/07/10 13:31:40;;;;;;;2.40;1.97;;;;;;;;;;5133829;27;20476;-68
2023/07/10 13:34:07;;;;;;;4.40;2.20;;;;;;;;;;5134189;27;20792;-68
2023/07/10 13:36:34;;;;;;;4.40;2.00;;;;;;;;;;5133832;27;20445;-68
2023/07/10 13:39:01;;;;;;;5.13;2.30;;;;;;;;;;5133312;27;20486;-68
2023/07/10 13:41:29;;;;;;;5.30;3.17;;;;;;;;;;5133899;28;20507;-68
2023/07/10 13:43:57;;;;;;;6.10;2.20;;;;;;;;;;5133634;28;20468;-68
2023/07/10 13:46:25;;;;;;;4.07;2.67;;;;;;;;;;5133812;28;20440;-68
2023/07/10 13:48:53;;;;;;;5.63;2.57;;;;;;;;;;5133637;28;20445;-67
2023/07/10 13:51:21;;;;;;;2.80;2.10;;;;;;;;;;5133519;28;20625;-68
2023/07/10 13:53:49;;;;;;;3.90;2.40;;;;;;;;;;5133967;28;20441;-68
2023/07/10 13:56:19;;;;;;;6.27;2.60;;;;;;;;;;5134012;28;20433;-68
2023/07/10 13:58:46;;;;;;;5.67;2.40;;;;;;;;;;5133590;28;20498;-68
2023/07/10 14:01:15;;;;;;;3.47;2.33;;;;;;;;;;5134075;28;20515;-68
2023/07/10 14:03:43;;;;;;;6.40;1.93;;;;;;;;;;5133642;28;20445;-68
2023/07/10 14:06:26;;;;;;;2.17;1.97;;;;;;;;;;5133793;28;20419;-68
2023/07/10 14:08:53;;;;;;;7.27;2.13;;;;;;;;;;5133918;28;20954;-68
2023/07/10 14:11:21;;;;;;;4.03;2.50;;;;;;;;;;5133307;28;20984;-68
2023/07/10 14:13:48;;;;;;;6.63;2.90;;;;;;;;;;5133724;28;20530;-68
2023/07/10 14:16:18;;;;;;;3.53;2.13;;;;;;;;;;5133461;28;20445;-68
2023/07/10 14:18:45;;;;;;;6.40;3.13;;;;;;;;;;5133726;28;20455;-68
2023/07/10 14:21:12;;;;;;;5.50;2.50;;;;;;;;;;5133385;28;20445;-68
2023/07/10 14:23:40;;;;;;;4.50;2.23;;;;;;;;;;5133774;28;20436;-68
2023/07/10 14:26:11;;;;;;;3.87;2.00;;;;;;;;;;5134038;28;20419;-69
2023/07/10 14:28:38;;;;;;;5.13;2.30;;;;;;;;;;5133489;28;20422;-68
2023/07/10 14:31:05;;;;;;;3.70;2.40;;;;;;;;;;5133290;28;20950;-68
2023/07/10 14:33:34;;;;;;;3.20;2.30;;;;;;;;;;5133881;28;20436;-68
2023/07/10 14:36:01;;;;;;;3.10;1.90;;;;;;;;;;5133529;28;20456;-69
2023/07/10 14:38:29;;;;;;;3.73;2.03;;;;;;;;;;5134017;28;20803;-68
2023/07/10 14:40:57;;;;;;;6.20;2.50;;;;;;;;;;5133756;28;20445;-68